sensor_id;sensor_type;location;lat;lon;timestamp;P1;durP1;ratioP1;P2;durP2;ratioP2
7493;SDS011;3788;49.902;8.590;2022-12-13T00:01:35;20.70;;;13.40;;
7493;SDS011;3788;49.902;8.590;2022-12-13T00:04:03;20.00;;;12.73;;
7493;SDS011;3788;49.902;8.590;2022-12-13T00:06:31;23.23;;;13.53;;
7493;SDS011;3788;49.902;8.590;2022-12-13T00:09:00;20.50;;;13.97;;
7493;SDS011;3788;49.902;8.590;2022-12-13T00:11:28;21.90;;;12.73;;
7493;SDS011;3788;49.902;8.590;2022-12-13T00:13:55;21.00;;;13.33;;
7493;SDS011;3788;49.902;8.590;2022-12-13T00:16:22;17.27;;;11.57;;
7493;SDS011;3788;49.902;8.590;2022-12-13T00:18:51;23.40;;;12.43;;
7493;SDS011;3788;49.902;8.590;2022-12-13T00:21:20;21.77;;;13.67;;
7493;SDS011;3788;49.902;8.590;2022-12-13T00:23:49;20.67;;;12.30;;
7493;SDS011;3788;49.902;8.590;2022-12-13T00:26:16;20.97;;;12.73;;
7493;SDS011;3788;49.902;8.590;2022-12-13T00:28:46;21.83;;;12.70;;
7493;SDS011;3788;49.902;8.590;2022-12-13T00:31:15;19.77;;;12.37;;
7493;SDS011;3788;49.902;8.590;2022-12-13T00:33:42;19.63;;;11.37;;
7493;SDS011;3788;49.902;8.590;2022-12-13T00:36:09;20.77;;;12.83;;
7493;SDS011;3788;49.902;8.590;2022-12-13T00:38:36;21.47;;;12.73;;
7493;SDS011;3788;49.902;8.590;2022-12-13T00:41:12;21.63;;;12.80;;
7493;SDS011;3788;49.902;8.590;2022-12-13T00:43:39;18.47;;;11.93;;
7493;SDS011;3788;49.902;8.590;2022-12-13T00:46:08;20.97;;;12.93;;
7493;SDS011;3788;49.902;8.590;2022-12-13T00:48:38;20.00;;;11.77;;
7493;SDS011;3788;49.902;8.590;2022-12-13T00:51:05;20.10;;;11.60;;
7493;SDS011;3788;49.902;8.590;2022-12-13T00:53:33;21.60;;;14.13;;
7493;SDS011;3788;49.902;8.590;2022-12-13T00:56:00;20.30;;;12.70;;
7493;SDS011;3788;49.902;8.590;2022-12-13T00:58:27;20.70;;;13.57;;
7493;SDS011;3788;49.902;8.590;2022-12-13T01:01:00;18.77;;;12.90;;
7493;SDS011;3788;49.902;8.590;2022-12-13T01:03:29;23.63;;;13.17;;
7493;SDS011;3788;49.902;8.590;2022-12-13T01:05:56;21.70;;;13.00;;
7493;SDS011;3788;49.902;8.590;2022-12-13T01:08:22;23.03;;;13.83;;
7493;SDS011;3788;49.902;8.590;2022-12-13T01:10:49;22.30;;;13.10;;
7493;SDS011;3788;49.902;8.590;2022-12-13T01:13:16;22.17;;;13.87;;
7493;SDS011;3788;49.902;8.590;2022-12-13T01:15:44;21.37;;;13.13;;
7493;SDS011;3788;49.902;8.590;2022-12-13T01:18:12;25.67;;;13.30;;
7493;SDS011;3788;49.902;8.590;2022-12-13T01:20:43;23.60;;;13.57;;
7493;SDS011;3788;49.902;8.590;2022-12-13T01:23:23;23.07;;;13.23;;
7493;SDS011;3788;49.902;8.590;2022-12-13T01:25:49;19.80;;;12.70;;
7493;SDS011;3788;49.902;8.590;2022-12-13T01:28:16;23.73;;;13.37;;
7493;SDS011;3788;49.902;8.590;2022-12-13T01:30:43;22.77;;;13.90;;
7493;SDS011;3788;49.902;8.590;2022-12-13T01:33:10;23.63;;;13.80;;
7493;SDS011;3788;49.902;8.590;2022-12-13T01:35:36;24.40;;;13.87;;
7493;SDS011;3788;49.902;8.590;2022-12-13T01:38:04;22.30;;;13.13;;
7493;SDS011;3788;49.902;8.590;2022-12-13T01:40:31;19.33;;;11.87;;
7493;SDS011;3788;49.902;8.590;2022-12-13T01:42:57;23.73;;;12.50;;
7493;SDS011;3788;49.902;8.590;2022-12-13T01:45:25;19.43;;;12.13;;
7493;SDS011;3788;49.902;8.590;2022-12-13T01:47:53;18.53;;;11.03;;
7493;SDS011;3788;49.902;8.590;2022-12-13T01:50:23;19.53;;;11.77;;
7493;SDS011;3788;49.902;8.590;2022-12-13T01:52:53;17.80;;;11.23;;
7493;SDS011;3788;49.902;8.590;2022-12-13T01:55:22;18.10;;;12.20;;
7493;SDS011;3788;49.902;8.590;2022-12-13T01:57:51;20.07;;;12.13;;
7493;SDS011;3788;49.902;8.590;2022-12-13T02:00:20;20.30;;;12.47;;
7493;SDS011;3788;49.902;8.590;2022-12-13T02:02:47;19.27;;;11.80;;
7493;SDS011;3788;49.902;8.590;2022-12-13T02:05:15;22.13;;;13.43;;
7493;SDS011;3788;49.902;8.590;2022-12-13T02:07:46;21.60;;;12.03;;
7493;SDS011;3788;49.902;8.590;2022-12-13T02:10:14;19.17;;;11.73;;
7493;SDS011;3788;49.902;8.590;2022-12-13T02:12:42;23.03;;;11.87;;
7493;SDS011;3788;49.902;8.590;2022-12-13T02:15:10;22.40;;;12.97;;
7493;SDS011;3788;49.902;8.590;2022-12-13T02:17:44;21.67;;;12.07;;
7493;SDS011;3788;49.902;8.590;2022-12-13T02:20:29;19.80;;;11.47;;
7493;SDS011;3788;49.902;8.590;2022-12-13T02:23:26;19.50;;;10.87;;
7493;SDS011;3788;49.902;8.590;2022-12-13T02:26:13;22.13;;;12.10;;
7493;SDS011;3788;49.902;8.590;2022-12-13T02:29:25;17.40;;;11.87;;
7493;SDS011;3788;49.902;8.590;2022-12-13T02:32:13;17.50;;;10.47;;
7493;SDS011;3788;49.902;8.590;2022-12-13T02:34:43;16.23;;;9.57;;
7493;SDS011;3788;49.902;8.590;2022-12-13T02:37:15;19.03;;;11.03;;
7493;SDS011;3788;49.902;8.590;2022-12-13T02:39:48;18.50;;;10.60;;
7493;SDS011;3788;49.902;8.590;2022-12-13T02:42:22;16.07;;;11.33;;
7493;SDS011;3788;49.902;8.590;2022-12-13T02:44:54;17.60;;;11.40;;
7493;SDS011;3788;49.902;8.590;2022-12-13T02:47:25;17.40;;;10.77;;
7493;SDS011;3788;49.902;8.590;2022-12-13T02:49:54;19.27;;;11.40;;
7493;SDS011;3788;49.902;8.590;2022-12-13T02:52:24;18.23;;;9.90;;
7493;SDS011;3788;49.902;8.590;2022-12-13T02:54:53;17.37;;;10.73;;
7493;SDS011;3788;49.902;8.590;2022-12-13T02:57:27;16.83;;;11.70;;
7493;SDS011;3788;49.902;8.590;2022-12-13T02:59:55;18.87;;;11.67;;
7493;SDS011;3788;49.902;8.590;2022-12-13T03:02:28;16.17;;;10.50;;
7493;SDS011;3788;49.902;8.590;2022-12-13T03:05:07;18.60;;;10.67;;
7493;SDS011;3788;49.902;8.590;2022-12-13T03:08:05;18.70;;;10.73;;
7493;SDS011;3788;49.902;8.590;2022-12-13T03:10:41;15.47;;;10.70;;
7493;SDS011;3788;49.902;8.590;2022-12-13T03:13:13;17.93;;;11.23;;
7493;SDS011;3788;49.902;8.590;2022-12-13T03:16:05;19.73;;;10.67;;
7493;SDS011;3788;49.902;8.590;2022-12-13T03:18:38;18.00;;;10.93;;
7493;SDS011;3788;49.902;8.590;2022-12-13T03:21:06;16.57;;;10.23;;
7493;SDS011;3788;49.902;8.590;2022-12-13T03:23:34;21.93;;;12.50;;
7493;SDS011;3788;49.902;8.590;2022-12-13T03:26:03;16.77;;;10.57;;
7493;SDS011;3788;49.902;8.590;2022-12-13T03:28:33;17.30;;;11.07;;
7493;SDS011;3788;49.902;8.590;2022-12-13T03:31:00;18.07;;;10.40;;
7493;SDS011;3788;49.902;8.590;2022-12-13T03:33:27;17.27;;;10.80;;
7493;SDS011;3788;49.902;8.590;2022-12-13T03:35:55;17.47;;;10.33;;
7493;SDS011;3788;49.902;8.590;2022-12-13T03:38:22;18.13;;;10.43;;
7493;SDS011;3788;49.902;8.590;2022-12-13T03:40:50;18.63;;;11.13;;
7493;SDS011;3788;49.902;8.590;2022-12-13T03:43:20;16.77;;;11.07;;
7493;SDS011;3788;49.902;8.590;2022-12-13T03:45:48;18.20;;;12.37;;
7493;SDS011;3788;49.902;8.590;2022-12-13T03:48:15;17.97;;;11.53;;
7493;SDS011;3788;49.902;8.590;2022-12-13T03:50:42;20.80;;;12.13;;
7493;SDS011;3788;49.902;8.590;2022-12-13T03:53:10;21.53;;;13.03;;
7493;SDS011;3788;49.902;8.590;2022-12-13T03:55:36;23.93;;;12.80;;
7493;SDS011;3788;49.902;8.590;2022-12-13T03:58:03;18.67;;;11.17;;
7493;SDS011;3788;49.902;8.590;2022-12-13T04:00:30;22.23;;;13.03;;
7493;SDS011;3788;49.902;8.590;2022-12-13T04:02:57;24.03;;;13.33;;
7493;SDS011;3788;49.902;8.590;2022-12-13T04:05:23;23.67;;;14.30;;
7493;SDS011;3788;49.902;8.590;2022-12-13T04:07:50;22.83;;;13.80;;
7493;SDS011;3788;49.902;8.590;2022-12-13T04:10:18;20.83;;;12.60;;
7493;SDS011;3788;49.902;8.590;2022-12-13T04:12:45;24.40;;;13.50;;
7493;SDS011;3788;49.902;8.590;2022-12-13T04:15:29;22.80;;;13.43;;
7493;SDS011;3788;49.902;8.590;2022-12-13T04:17:56;21.83;;;13.13;;
7493;SDS011;3788;49.902;8.590;2022-12-13T04:20:22;22.63;;;13.90;;
7493;SDS011;3788;49.902;8.590;2022-12-13T04:22:49;26.37;;;14.03;;
7493;SDS011;3788;49.902;8.590;2022-12-13T04:25:16;24.50;;;13.57;;
7493;SDS011;3788;49.902;8.590;2022-12-13T04:27:44;26.23;;;14.63;;
7493;SDS011;3788;49.902;8.590;2022-12-13T04:30:11;22.77;;;13.37;;
7493;SDS011;3788;49.902;8.590;2022-12-13T04:32:38;27.20;;;15.03;;
7493;SDS011;3788;49.902;8.590;2022-12-13T04:35:05;24.33;;;13.90;;
7493;SDS011;3788;49.902;8.590;2022-12-13T04:37:32;25.10;;;13.00;;
7493;SDS011;3788;49.902;8.590;2022-12-13T04:39:58;26.43;;;14.10;;
7493;SDS011;3788;49.902;8.590;2022-12-13T04:42:25;22.30;;;13.80;;
7493;SDS011;3788;49.902;8.590;2022-12-13T04:44:54;25.53;;;13.20;;
7493;SDS011;3788;49.902;8.590;2022-12-13T04:47:21;26.60;;;13.90;;
7493;SDS011;3788;49.902;8.590;2022-12-13T04:49:47;25.17;;;12.77;;
7493;SDS011;3788;49.902;8.590;2022-12-13T04:52:14;22.53;;;14.10;;
7493;SDS011;3788;49.902;8.590;2022-12-13T04:54:41;23.27;;;14.30;;
7493;SDS011;3788;49.902;8.590;2022-12-13T04:57:08;28.77;;;14.37;;
7493;SDS011;3788;49.902;8.590;2022-12-13T04:59:36;26.83;;;14.10;;
7493;SDS011;3788;49.902;8.590;2022-12-13T05:02:05;23.23;;;12.97;;
7493;SDS011;3788;49.902;8.590;2022-12-13T05:04:32;26.80;;;14.43;;
7493;SDS011;3788;49.902;8.590;2022-12-13T05:06:59;23.83;;;12.93;;
7493;SDS011;3788;49.902;8.590;2022-12-13T05:09:27;25.37;;;13.03;;
7493;SDS011;3788;49.902;8.590;2022-12-13T05:11:54;22.23;;;12.60;;
7493;SDS011;3788;49.902;8.590;2022-12-13T05:14:20;25.73;;;13.80;;
7493;SDS011;3788;49.902;8.590;2022-12-13T05:16:47;26.97;;;13.60;;
7493;SDS011;3788;49.902;8.590;2022-12-13T05:19:15;24.73;;;12.73;;
7493;SDS011;3788;49.902;8.590;2022-12-13T05:21:42;24.77;;;13.80;;
7493;SDS011;3788;49.902;8.590;2022-12-13T05:24:09;24.60;;;13.57;;
7493;SDS011;3788;49.902;8.590;2022-12-13T05:26:36;23.30;;;12.67;;
7493;SDS011;3788;49.902;8.590;2022-12-13T05:29:02;23.73;;;13.87;;
7493;SDS011;3788;49.902;8.590;2022-12-13T05:31:29;25.67;;;14.27;;
7493;SDS011;3788;49.902;8.590;2022-12-13T05:33:56;20.57;;;12.83;;
7493;SDS011;3788;49.902;8.590;2022-12-13T05:36:24;24.93;;;13.40;;
7493;SDS011;3788;49.902;8.590;2022-12-13T05:38:50;25.43;;;13.17;;
7493;SDS011;3788;49.902;8.590;2022-12-13T05:41:18;27.00;;;13.63;;
7493;SDS011;3788;49.902;8.590;2022-12-13T05:43:48;21.77;;;12.97;;
7493;SDS011;3788;49.902;8.590;2022-12-13T05:46:15;27.07;;;14.13;;
7493;SDS011;3788;49.902;8.590;2022-12-13T05:48:42;26.00;;;13.03;;
7493;SDS011;3788;49.902;8.590;2022-12-13T05:51:09;22.60;;;12.70;;
7493;SDS011;3788;49.902;8.590;2022-12-13T05:53:38;22.27;;;12.40;;
7493;SDS011;3788;49.902;8.590;2022-12-13T05:56:05;26.70;;;12.73;;
7493;SDS011;3788;49.902;8.590;2022-12-13T05:58:33;22.40;;;12.77;;
7493;SDS011;3788;49.902;8.590;2022-12-13T06:01:03;25.30;;;13.07;;
7493;SDS011;3788;49.902;8.590;2022-12-13T06:03:31;20.90;;;11.97;;
7493;SDS011;3788;49.902;8.590;2022-12-13T06:05:59;25.23;;;12.07;;
7493;SDS011;3788;49.902;8.590;2022-12-13T06:08:26;21.57;;;12.70;;
7493;SDS011;3788;49.902;8.590;2022-12-13T06:10:55;25.23;;;12.80;;
7493;SDS011;3788;49.902;8.590;2022-12-13T06:13:22;18.53;;;11.53;;
7493;SDS011;3788;49.902;8.590;2022-12-13T06:15:49;20.00;;;12.07;;
7493;SDS011;3788;49.902;8.590;2022-12-13T06:18:16;20.87;;;11.77;;
7493;SDS011;3788;49.902;8.590;2022-12-13T06:20:43;24.67;;;13.30;;
7493;SDS011;3788;49.902;8.590;2022-12-13T06:23:11;20.80;;;11.83;;
7493;SDS011;3788;49.902;8.590;2022-12-13T06:25:37;23.20;;;12.50;;
7493;SDS011;3788;49.902;8.590;2022-12-13T06:28:05;22.70;;;11.80;;
7493;SDS011;3788;49.902;8.590;2022-12-13T06:30:32;21.63;;;12.33;;
7493;SDS011;3788;49.902;8.590;2022-12-13T06:32:59;21.30;;;12.07;;
7493;SDS011;3788;49.902;8.590;2022-12-13T06:35:25;24.83;;;13.33;;
7493;SDS011;3788;49.902;8.590;2022-12-13T06:37:52;19.73;;;11.10;;
7493;SDS011;3788;49.902;8.590;2022-12-13T06:40:19;21.40;;;11.73;;
7493;SDS011;3788;49.902;8.590;2022-12-13T06:42:45;21.33;;;12.77;;
7493;SDS011;3788;49.902;8.590;2022-12-13T06:45:13;21.70;;;12.00;;
7493;SDS011;3788;49.902;8.590;2022-12-13T06:47:40;26.70;;;13.47;;
7493;SDS011;3788;49.902;8.590;2022-12-13T06:50:07;22.13;;;12.13;;
7493;SDS011;3788;49.902;8.590;2022-12-13T06:52:34;24.47;;;13.77;;
7493;SDS011;3788;49.902;8.590;2022-12-13T06:55:01;22.37;;;14.10;;
7493;SDS011;3788;49.902;8.590;2022-12-13T06:57:30;25.17;;;12.73;;
7493;SDS011;3788;49.902;8.590;2022-12-13T06:59:57;23.47;;;13.70;;
7493;SDS011;3788;49.902;8.590;2022-12-13T07:02:26;21.50;;;12.33;;
7493;SDS011;3788;49.902;8.590;2022-12-13T07:04:53;27.07;;;12.67;;
7493;SDS011;3788;49.902;8.590;2022-12-13T07:07:20;24.83;;;12.73;;
7493;SDS011;3788;49.902;8.590;2022-12-13T07:09:47;23.30;;;12.37;;
7493;SDS011;3788;49.902;8.590;2022-12-13T07:12:13;22.60;;;13.57;;
7493;SDS011;3788;49.902;8.590;2022-12-13T07:14:40;25.37;;;13.43;;
7493;SDS011;3788;49.902;8.590;2022-12-13T07:17:07;25.23;;;13.17;;
7493;SDS011;3788;49.902;8.590;2022-12-13T07:19:36;23.03;;;12.70;;
7493;SDS011;3788;49.902;8.590;2022-12-13T07:22:02;23.37;;;12.83;;
7493;SDS011;3788;49.902;8.590;2022-12-13T07:24:30;24.67;;;13.13;;
7493;SDS011;3788;49.902;8.590;2022-12-13T07:26:56;23.07;;;12.13;;
7493;SDS011;3788;49.902;8.590;2022-12-13T07:29:23;22.33;;;11.93;;
7493;SDS011;3788;49.902;8.590;2022-12-13T07:31:50;26.23;;;12.40;;
7493;SDS011;3788;49.902;8.590;2022-12-13T07:34:17;23.33;;;13.43;;
7493;SDS011;3788;49.902;8.590;2022-12-13T07:36:45;21.90;;;12.93;;
7493;SDS011;3788;49.902;8.590;2022-12-13T07:39:14;26.03;;;13.43;;
7493;SDS011;3788;49.902;8.590;2022-12-13T07:41:41;22.50;;;13.47;;
7493;SDS011;3788;49.902;8.590;2022-12-13T07:44:08;26.13;;;13.43;;
7493;SDS011;3788;49.902;8.590;2022-12-13T07:46:35;24.60;;;13.73;;
7493;SDS011;3788;49.902;8.590;2022-12-13T07:49:02;24.97;;;13.63;;
7493;SDS011;3788;49.902;8.590;2022-12-13T07:51:31;26.00;;;12.70;;
7493;SDS011;3788;49.902;8.590;2022-12-13T07:54:00;25.27;;;13.53;;
7493;SDS011;3788;49.902;8.590;2022-12-13T07:56:27;25.33;;;13.60;;
7493;SDS011;3788;49.902;8.590;2022-12-13T07:58:54;21.97;;;12.73;;
7493;SDS011;3788;49.902;8.590;2022-12-13T08:01:20;24.30;;;13.03;;
7493;SDS011;3788;49.902;8.590;2022-12-13T08:03:48;19.40;;;12.67;;
7493;SDS011;3788;49.902;8.590;2022-12-13T08:06:14;20.23;;;11.80;;
7493;SDS011;3788;49.902;8.590;2022-12-13T08:08:43;22.13;;;12.07;;
7493;SDS011;3788;49.902;8.590;2022-12-13T08:11:12;21.60;;;12.50;;
7493;SDS011;3788;49.902;8.590;2022-12-13T08:13:41;22.87;;;11.87;;
7493;SDS011;3788;49.902;8.590;2022-12-13T08:16:08;22.43;;;12.90;;
7493;SDS011;3788;49.902;8.590;2022-12-13T08:18:36;25.77;;;12.80;;
7493;SDS011;3788;49.902;8.590;2022-12-13T08:21:04;22.37;;;12.90;;
7493;SDS011;3788;49.902;8.590;2022-12-13T08:23:32;24.43;;;12.83;;
7493;SDS011;3788;49.902;8.590;2022-12-13T08:26:00;22.70;;;14.23;;
7493;SDS011;3788;49.902;8.590;2022-12-13T08:28:29;23.60;;;13.23;;
7493;SDS011;3788;49.902;8.590;2022-12-13T08:31:01;24.53;;;13.23;;
7493;SDS011;3788;49.902;8.590;2022-12-13T08:33:29;23.30;;;12.83;;
7493;SDS011;3788;49.902;8.590;2022-12-13T08:35:55;22.63;;;12.80;;
7493;SDS011;3788;49.902;8.590;2022-12-13T08:38:22;23.87;;;12.67;;
7493;SDS011;3788;49.902;8.590;2022-12-13T08:40:49;19.63;;;11.87;;
7493;SDS011;3788;49.902;8.590;2022-12-13T08:43:16;22.50;;;11.77;;
7493;SDS011;3788;49.902;8.590;2022-12-13T08:45:44;19.07;;;11.90;;
7493;SDS011;3788;49.902;8.590;2022-12-13T08:48:11;19.13;;;11.00;;
7493;SDS011;3788;49.902;8.590;2022-12-13T08:50:38;18.77;;;11.13;;
7493;SDS011;3788;49.902;8.590;2022-12-13T08:53:04;21.60;;;12.23;;
7493;SDS011;3788;49.902;8.590;2022-12-13T08:55:31;21.00;;;11.47;;
7493;SDS011;3788;49.902;8.590;2022-12-13T08:57:58;20.33;;;11.27;;
7493;SDS011;3788;49.902;8.590;2022-12-13T09:00:32;21.27;;;12.83;;
7493;SDS011;3788;49.902;8.590;2022-12-13T09:03:01;19.43;;;11.67;;
7493;SDS011;3788;49.902;8.590;2022-12-13T09:05:28;18.37;;;11.77;;
7493;SDS011;3788;49.902;8.590;2022-12-13T09:07:55;19.37;;;12.17;;
7493;SDS011;3788;49.902;8.590;2022-12-13T09:10:22;19.43;;;11.33;;
7493;SDS011;3788;49.902;8.590;2022-12-13T09:12:49;19.67;;;11.97;;
7493;SDS011;3788;49.902;8.590;2022-12-13T09:15:15;17.53;;;11.17;;
7493;SDS011;3788;49.902;8.590;2022-12-13T09:17:42;24.20;;;12.70;;
7493;SDS011;3788;49.902;8.590;2022-12-13T09:20:11;25.43;;;13.83;;
7493;SDS011;3788;49.902;8.590;2022-12-13T09:22:38;22.27;;;12.43;;
7493;SDS011;3788;49.902;8.590;2022-12-13T09:25:05;21.47;;;11.67;;
7493;SDS011;3788;49.902;8.590;2022-12-13T09:27:33;21.03;;;11.80;;
7493;SDS011;3788;49.902;8.590;2022-12-13T09:30:00;21.23;;;13.07;;
7493;SDS011;3788;49.902;8.590;2022-12-13T09:32:27;22.33;;;12.87;;
7493;SDS011;3788;49.902;8.590;2022-12-13T09:34:53;20.97;;;13.07;;
7493;SDS011;3788;49.902;8.590;2022-12-13T09:37:21;20.87;;;13.17;;
7493;SDS011;3788;49.902;8.590;2022-12-13T09:39:48;26.33;;;15.00;;
7493;SDS011;3788;49.902;8.590;2022-12-13T09:42:16;27.37;;;14.63;;
7493;SDS011;3788;49.902;8.590;2022-12-13T09:44:48;24.63;;;14.27;;
7493;SDS011;3788;49.902;8.590;2022-12-13T09:47:21;20.63;;;12.53;;
7493;SDS011;3788;49.902;8.590;2022-12-13T09:49:54;24.10;;;13.57;;
7493;SDS011;3788;49.902;8.590;2022-12-13T09:52:23;23.10;;;14.43;;
7493;SDS011;3788;49.902;8.590;2022-12-13T09:54:51;25.70;;;13.43;;
7493;SDS011;3788;49.902;8.590;2022-12-13T09:57:21;23.47;;;13.67;;
7493;SDS011;3788;49.902;8.590;2022-12-13T09:59:52;21.73;;;14.17;;
7493;SDS011;3788;49.902;8.590;2022-12-13T10:02:20;23.93;;;14.07;;
7493;SDS011;3788;49.902;8.590;2022-12-13T10:04:50;23.83;;;13.60;;
7493;SDS011;3788;49.902;8.590;2022-12-13T10:07:17;22.10;;;13.67;;
7493;SDS011;3788;49.902;8.590;2022-12-13T10:09:47;22.10;;;12.67;;
7493;SDS011;3788;49.902;8.590;2022-12-13T10:12:20;22.13;;;12.40;;
7493;SDS011;3788;49.902;8.590;2022-12-13T10:14:48;25.93;;;13.67;;
7493;SDS011;3788;49.902;8.590;2022-12-13T10:17:20;22.67;;;13.73;;
7493;SDS011;3788;49.902;8.590;2022-12-13T10:19:50;22.13;;;13.33;;
7493;SDS011;3788;49.902;8.590;2022-12-13T10:22:19;18.77;;;13.33;;
7493;SDS011;3788;49.902;8.590;2022-12-13T10:24:50;20.60;;;12.93;;
7493;SDS011;3788;49.902;8.590;2022-12-13T10:27:19;21.30;;;12.43;;
7493;SDS011;3788;49.902;8.590;2022-12-13T10:29:58;20.30;;;12.97;;
7493;SDS011;3788;49.902;8.590;2022-12-13T10:32:27;21.40;;;12.70;;
7493;SDS011;3788;49.902;8.590;2022-12-13T10:34:57;24.80;;;14.13;;
7493;SDS011;3788;49.902;8.590;2022-12-13T10:37:27;22.00;;;11.83;;
7493;SDS011;3788;49.902;8.590;2022-12-13T10:39:57;19.53;;;12.20;;
7493;SDS011;3788;49.902;8.590;2022-12-13T10:42:24;21.17;;;12.20;;
7493;SDS011;3788;49.902;8.590;2022-12-13T10:45:07;21.63;;;11.70;;
7493;SDS011;3788;49.902;8.590;2022-12-13T10:47:35;22.10;;;12.17;;
7493;SDS011;3788;49.902;8.590;2022-12-13T10:50:02;20.03;;;12.17;;
7493;SDS011;3788;49.902;8.590;2022-12-13T10:52:30;17.70;;;12.07;;
7493;SDS011;3788;49.902;8.590;2022-12-13T10:55:00;20.33;;;11.93;;
7493;SDS011;3788;49.902;8.590;2022-12-13T10:57:29;20.63;;;11.27;;
7493;SDS011;3788;49.902;8.590;2022-12-13T10:59:56;20.23;;;11.63;;
7493;SDS011;3788;49.902;8.590;2022-12-13T11:02:33;19.97;;;10.73;;
7493;SDS011;3788;49.902;8.590;2022-12-13T11:05:20;17.70;;;10.33;;
7493;SDS011;3788;49.902;8.590;2022-12-13T11:07:48;16.77;;;11.20;;
7493;SDS011;3788;49.902;8.590;2022-12-13T11:10:20;20.40;;;11.93;;
7493;SDS011;3788;49.902;8.590;2022-12-13T11:12:49;20.67;;;12.03;;
7493;SDS011;3788;49.902;8.590;2022-12-13T11:15:18;15.77;;;10.80;;
7493;SDS011;3788;49.902;8.590;2022-12-13T11:17:50;18.43;;;11.30;;
7493;SDS011;3788;49.902;8.590;2022-12-13T11:20:20;18.07;;;10.80;;
7493;SDS011;3788;49.902;8.590;2022-12-13T11:22:48;19.97;;;10.87;;
7493;SDS011;3788;49.902;8.590;2022-12-13T11:25:25;19.47;;;10.33;;
7493;SDS011;3788;49.902;8.590;2022-12-13T11:28:01;16.93;;;10.47;;
7493;SDS011;3788;49.902;8.590;2022-12-13T11:30:35;20.17;;;11.57;;
7493;SDS011;3788;49.902;8.590;2022-12-13T11:33:11;16.53;;;10.73;;
7493;SDS011;3788;49.902;8.590;2022-12-13T11:35:47;19.20;;;11.27;;
7493;SDS011;3788;49.902;8.590;2022-12-13T11:38:24;18.60;;;11.10;;
7493;SDS011;3788;49.902;8.590;2022-12-13T11:40:58;16.20;;;10.50;;
7493;SDS011;3788;49.902;8.590;2022-12-13T11:43:28;15.63;;;10.57;;
7493;SDS011;3788;49.902;8.590;2022-12-13T11:46:01;16.27;;;10.63;;
7493;SDS011;3788;49.902;8.590;2022-12-13T11:48:38;15.20;;;10.03;;
7493;SDS011;3788;49.902;8.590;2022-12-13T11:51:10;17.07;;;10.03;;
7493;SDS011;3788;49.902;8.590;2022-12-13T11:53:47;15.93;;;9.63;;
7493;SDS011;3788;49.902;8.590;2022-12-13T11:56:22;16.70;;;10.10;;
7493;SDS011;3788;49.902;8.590;2022-12-13T11:58:53;16.83;;;10.30;;
7493;SDS011;3788;49.902;8.590;2022-12-13T12:01:28;15.70;;;9.80;;
7493;SDS011;3788;49.902;8.590;2022-12-13T12:04:00;15.93;;;10.13;;
7493;SDS011;3788;49.902;8.590;2022-12-13T12:06:38;12.60;;;9.17;;
7493;SDS011;3788;49.902;8.590;2022-12-13T12:09:10;15.17;;;10.47;;
7493;SDS011;3788;49.902;8.590;2022-12-13T12:11:43;15.43;;;10.47;;
7493;SDS011;3788;49.902;8.590;2022-12-13T12:14:15;15.23;;;9.87;;
7493;SDS011;3788;49.902;8.590;2022-12-13T12:16:46;14.60;;;9.23;;
7493;SDS011;3788;49.902;8.590;2022-12-13T12:19:16;14.90;;;9.23;;
7493;SDS011;3788;49.902;8.590;2022-12-13T12:21:49;17.40;;;10.40;;
7493;SDS011;3788;49.902;8.590;2022-12-13T12:24:28;14.63;;;10.13;;
7493;SDS011;3788;49.902;8.590;2022-12-13T12:27:13;16.57;;;9.93;;
7493;SDS011;3788;49.902;8.590;2022-12-13T12:29:51;15.17;;;10.90;;
7493;SDS011;3788;49.902;8.590;2022-12-13T12:32:43;15.67;;;10.23;;
7493;SDS011;3788;49.902;8.590;2022-12-13T12:38:24;14.83;;;9.97;;
7493;SDS011;3788;49.902;8.590;2022-12-13T12:41:10;17.33;;;10.00;;
7493;SDS011;3788;49.902;8.590;2022-12-13T12:43:49;15.60;;;9.73;;
7493;SDS011;3788;49.902;8.590;2022-12-13T12:46:28;18.63;;;11.27;;
7493;SDS011;3788;49.902;8.590;2022-12-13T12:49:20;14.90;;;9.33;;
7493;SDS011;3788;49.902;8.590;2022-12-13T12:52:09;16.13;;;10.60;;
7493;SDS011;3788;49.902;8.590;2022-12-13T12:54:41;16.47;;;10.43;;
7493;SDS011;3788;49.902;8.590;2022-12-13T12:57:17;14.83;;;9.53;;
7493;SDS011;3788;49.902;8.590;2022-12-13T12:59:52;16.67;;;9.80;;
7493;SDS011;3788;49.902;8.590;2022-12-13T13:02:30;14.50;;;9.50;;
7493;SDS011;3788;49.902;8.590;2022-12-13T13:05:07;17.60;;;9.50;;
7493;SDS011;3788;49.902;8.590;2022-12-13T13:07:43;14.50;;;9.27;;
7493;SDS011;3788;49.902;8.590;2022-12-13T13:10:12;16.43;;;9.90;;
7493;SDS011;3788;49.902;8.590;2022-12-13T13:12:40;16.07;;;9.47;;
7493;SDS011;3788;49.902;8.590;2022-12-13T13:21:34;15.07;;;9.17;;
7493;SDS011;3788;49.902;8.590;2022-12-13T13:24:12;13.57;;;10.00;;
7493;SDS011;3788;49.902;8.590;2022-12-13T13:26:47;15.47;;;9.30;;
7493;SDS011;3788;49.902;8.590;2022-12-13T13:29:19;14.73;;;9.97;;
7493;SDS011;3788;49.902;8.590;2022-12-13T13:32:05;16.53;;;9.50;;
7493;SDS011;3788;49.902;8.590;2022-12-13T13:34:49;14.33;;;9.87;;
7493;SDS011;3788;49.902;8.590;2022-12-13T13:37:28;17.37;;;10.53;;
7493;SDS011;3788;49.902;8.590;2022-12-13T13:40:27;14.77;;;9.20;;
7493;SDS011;3788;49.902;8.590;2022-12-13T13:43:06;13.73;;;9.27;;
7493;SDS011;3788;49.902;8.590;2022-12-13T13:48:50;15.20;;;9.43;;
7493;SDS011;3788;49.902;8.590;2022-12-13T13:51:28;13.57;;;8.30;;
7493;SDS011;3788;49.902;8.590;2022-12-13T13:57:24;14.57;;;9.23;;
7493;SDS011;3788;49.902;8.590;2022-12-13T14:00:13;12.80;;;9.10;;
7493;SDS011;3788;49.902;8.590;2022-12-13T14:05:52;15.23;;;9.67;;
7493;SDS011;3788;49.902;8.590;2022-12-13T14:09:04;16.60;;;9.23;;
7493;SDS011;3788;49.902;8.590;2022-12-13T14:15:16;12.73;;;9.23;;
7493;SDS011;3788;49.902;8.590;2022-12-13T14:21:04;16.97;;;9.77;;
7493;SDS011;3788;49.902;8.590;2022-12-13T14:23:41;13.13;;;8.37;;
7493;SDS011;3788;49.902;8.590;2022-12-13T14:26:20;13.37;;;8.20;;
7493;SDS011;3788;49.902;8.590;2022-12-13T14:28:57;14.23;;;8.83;;
7493;SDS011;3788;49.902;8.590;2022-12-13T14:31:28;16.03;;;9.70;;
7493;SDS011;3788;49.902;8.590;2022-12-13T14:34:01;13.53;;;8.90;;
7493;SDS011;3788;49.902;8.590;2022-12-13T14:36:30;13.63;;;8.77;;
7493;SDS011;3788;49.902;8.590;2022-12-13T14:38:59;13.50;;;8.43;;
7493;SDS011;3788;49.902;8.590;2022-12-13T14:41:27;16.13;;;9.00;;
7493;SDS011;3788;49.902;8.590;2022-12-13T14:43:55;14.77;;;9.30;;
7493;SDS011;3788;49.902;8.590;2022-12-13T14:46:47;11.63;;;8.53;;
7493;SDS011;3788;49.902;8.590;2022-12-13T14:49:15;12.40;;;8.30;;
7493;SDS011;3788;49.902;8.590;2022-12-13T14:51:41;14.07;;;9.07;;
7493;SDS011;3788;49.902;8.590;2022-12-13T14:54:13;13.47;;;8.90;;
7493;SDS011;3788;49.902;8.590;2022-12-13T14:56:53;14.07;;;9.10;;
7493;SDS011;3788;49.902;8.590;2022-12-13T14:59:21;12.57;;;9.50;;
7493;SDS011;3788;49.902;8.590;2022-12-13T15:01:54;15.90;;;9.77;;
7493;SDS011;3788;49.902;8.590;2022-12-13T15:04:25;14.27;;;9.17;;
7493;SDS011;3788;49.902;8.590;2022-12-13T15:06:54;16.07;;;9.50;;
7493;SDS011;3788;49.902;8.590;2022-12-13T15:09:26;15.23;;;9.40;;
7493;SDS011;3788;49.902;8.590;2022-12-13T15:11:54;13.97;;;9.13;;
7493;SDS011;3788;49.902;8.590;2022-12-13T15:14:23;16.37;;;10.20;;
7493;SDS011;3788;49.902;8.590;2022-12-13T15:16:51;13.43;;;9.03;;
7493;SDS011;3788;49.902;8.590;2022-12-13T15:19:22;15.50;;;9.57;;
7493;SDS011;3788;49.902;8.590;2022-12-13T15:21:53;15.43;;;10.67;;
7493;SDS011;3788;49.902;8.590;2022-12-13T15:24:22;17.20;;;9.47;;
7493;SDS011;3788;49.902;8.590;2022-12-13T15:26:52;15.70;;;10.63;;
7493;SDS011;3788;49.902;8.590;2022-12-13T15:29:20;15.37;;;9.57;;
7493;SDS011;3788;49.902;8.590;2022-12-13T15:31:48;13.67;;;9.03;;
7493;SDS011;3788;49.902;8.590;2022-12-13T15:37:02;16.37;;;10.37;;
7493;SDS011;3788;49.902;8.590;2022-12-13T15:39:34;18.80;;;10.93;;